sensor_id;sensor_type;location;lat;lon;timestamp;pressure;altitude;pressure_sealevel;temperature;humidity
64679;BME280;51094;53.864;27.676;2023-10-08T00:01:04;97966.47;;;6.10;61.69
64679;BME280;51094;53.864;27.676;2023-10-08T00:03:33;97947.66;;;5.96;62.05
64679;BME280;51094;53.864;27.676;2023-10-08T00:06:02;97961.06;;;6.02;62.20
64679;BME280;51094;53.864;27.676;2023-10-08T00:08:33;97951.19;;;5.95;62.65
64679;BME280;51094;53.864;27.676;2023-10-08T00:11:00;97957.06;;;5.97;61.96
64679;BME280;51094;53.864;27.676;2023-10-08T00:13:34;97922.22;;;5.79;62.78
64679;BME280;51094;53.864;27.676;2023-10-08T00:16:11;97945.66;;;5.89;62.63
64679;BME280;51094;53.864;27.676;2023-10-08T00:18:43;97941.59;;;5.85;62.52
64679;BME280;51094;53.864;27.676;2023-10-08T00:21:15;97873.84;;;5.35;62.74
64679;BME280;51094;53.864;27.676;2023-10-08T00:23:43;97950.38;;;5.82;63.11
64679;BME280;51094;53.864;27.676;2023-10-08T00:26:16;97936.38;;;5.74;62.50
64679;BME280;51094;53.864;27.676;2023-10-08T00:28:48;97914.44;;;5.68;62.58
64679;BME280;51094;53.864;27.676;2023-10-08T00:31:18;97932.72;;;5.65;62.45
64679;BME280;51094;53.864;27.676;2023-10-08T00:33:45;97936.28;;;5.75;62.75
64679;BME280;51094;53.864;27.676;2023-10-08T00:36:12;97845.78;;;5.19;62.08
64679;BME280;51094;53.864;27.676;2023-10-08T00:38:51;97910.91;;;5.58;61.85
64679;BME280;51094;53.864;27.676;2023-10-08T00:41:21;97966.41;;;5.75;62.57
64679;BME280;51094;53.864;27.676;2023-10-08T00:43:49;97951.75;;;5.75;61.98
64679;BME280;51094;53.864;27.676;2023-10-08T00:46:18;97871.22;;;5.24;61.90
64679;BME280;51094;53.864;27.676;2023-10-08T00:48:54;97958.78;;;5.73;62.21
64679;BME280;51094;53.864;27.676;2023-10-08T00:51:23;97897.16;;;5.33;62.18
64679;BME280;51094;53.864;27.676;2023-10-08T00:54:02;97950.75;;;5.65;62.52
64679;BME280;51094;53.864;27.676;2023-10-08T00:56:36;97883.66;;;5.30;62.54
64679;BME280;51094;53.864;27.676;2023-10-08T00:59:21;97803.31;;;4.64;62.33
64679;BME280;51094;53.864;27.676;2023-10-08T01:01:51;97935.53;;;5.62;63.11
64679;BME280;51094;53.864;27.676;2023-10-08T01:04:19;97945.84;;;5.62;63.06
64679;BME280;51094;53.864;27.676;2023-10-08T01:07:00;97940.44;;;5.65;62.77
64679;BME280;51094;53.864;27.676;2023-10-08T01:09:28;97911.88;;;5.44;62.43
64679;BME280;51094;53.864;27.676;2023-10-08T01:12:22;97928.66;;;5.50;62.70
64679;BME280;51094;53.864;27.676;2023-10-08T01:14:55;97828.88;;;4.91;62.38
64679;BME280;51094;53.864;27.676;2023-10-08T01:17:33;97934.25;;;5.44;62.34
64679;BME280;51094;53.864;27.676;2023-10-08T01:20:14;97941.06;;;5.45;62.99
64679;BME280;51094;53.864;27.676;2023-10-08T01:23:07;97804.06;;;4.54;62.42
64679;BME280;51094;53.864;27.676;2023-10-08T01:25:43;97951.78;;;5.39;62.24
64679;BME280;51094;53.864;27.676;2023-10-08T01:28:18;97956.22;;;5.37;62.63
64679;BME280;51094;53.864;27.676;2023-10-08T01:30:52;97937.38;;;5.36;62.85
64679;BME280;51094;53.864;27.676;2023-10-08T01:33:21;97945.53;;;5.30;61.90
64679;BME280;51094;53.864;27.676;2023-10-08T01:35:49;97817.13;;;4.51;61.82
64679;BME280;51094;53.864;27.676;2023-10-08T01:38:16;97865.06;;;4.77;62.28
64679;BME280;51094;53.864;27.676;2023-10-08T01:40:50;97929.66;;;5.23;61.89
64679;BME280;51094;53.864;27.676;2023-10-08T01:43:18;97942.22;;;5.28;61.65
64679;BME280;51094;53.864;27.676;2023-10-08T01:45:46;97886.88;;;4.84;61.61
64679;BME280;51094;53.864;27.676;2023-10-08T01:48:16;97946.16;;;5.21;62.11
64679;BME280;51094;53.864;27.676;2023-10-08T01:50:47;97835.56;;;4.57;61.73
64679;BME280;51094;53.864;27.676;2023-10-08T01:53:14;97878.66;;;4.79;61.70
64679;BME280;51094;53.864;27.676;2023-10-08T01:55:46;97935.47;;;5.14;62.46
64679;BME280;51094;53.864;27.676;2023-10-08T01:58:16;97954.03;;;5.19;61.80
64679;BME280;51094;53.864;27.676;2023-10-08T02:00:48;97935.38;;;5.16;62.48
64679;BME280;51094;53.864;27.676;2023-10-08T02:03:16;97940.91;;;5.22;61.44
64679;BME280;51094;53.864;27.676;2023-10-08T02:05:45;97942.06;;;5.18;61.85
64679;BME280;51094;53.864;27.676;2023-10-08T02:08:14;97908.09;;;4.88;61.66
64679;BME280;51094;53.864;27.676;2023-10-08T02:10:43;97947.22;;;5.18;61.97
64679;BME280;51094;53.864;27.676;2023-10-08T02:13:13;97935.59;;;5.13;62.54
64679;BME280;51094;53.864;27.676;2023-10-08T02:15:44;97781.69;;;4.18;61.95
64679;BME280;51094;53.864;27.676;2023-10-08T02:18:11;97944.88;;;5.15;62.00
64679;BME280;51094;53.864;27.676;2023-10-08T02:20:39;97907.75;;;4.68;63.13
64679;BME280;51094;53.864;27.676;2023-10-08T02:23:06;97940.13;;;5.09;62.27
64679;BME280;51094;53.864;27.676;2023-10-08T02:25:33;97924.16;;;5.04;62.16
64679;BME280;51094;53.864;27.676;2023-10-08T02:28:05;97933.34;;;5.08;62.31
64679;BME280;51094;53.864;27.676;2023-10-08T02:30:33;97946.63;;;5.02;62.44
64679;BME280;51094;53.864;27.676;2023-10-08T02:33:00;97886.22;;;4.57;62.64
64679;BME280;51094;53.864;27.676;2023-10-08T02:35:27;97945.19;;;4.98;63.19
64679;BME280;51094;53.864;27.676;2023-10-08T02:37:54;97939.31;;;4.96;63.11
64679;BME280;51094;53.864;27.676;2023-10-08T02:40:25;97935.63;;;4.87;63.10
64679;BME280;51094;53.864;27.676;2023-10-08T02:42:54;97932.72;;;4.92;63.60
64679;BME280;51094;53.864;27.676;2023-10-08T02:45:26;97922.44;;;4.79;64.01
64679;BME280;51094;53.864;27.676;2023-10-08T02:47:53;97925.41;;;4.86;64.28
64679;BME280;51094;53.864;27.676;2023-10-08T02:50:22;97940.56;;;4.78;64.88
64679;BME280;51094;53.864;27.676;2023-10-08T02:52:49;97931.19;;;4.77;64.32
64679;BME280;51094;53.864;27.676;2023-10-08T02:55:17;97925.94;;;4.78;65.08
64679;BME280;51094;53.864;27.676;2023-10-08T02:58:02;97906.50;;;4.49;64.98
64679;BME280;51094;53.864;27.676;2023-10-08T03:00:30;97896.31;;;4.47;65.14
64679;BME280;51094;53.864;27.676;2023-10-08T03:03:01;97894.56;;;4.48;64.98
64679;BME280;51094;53.864;27.676;2023-10-08T03:05:36;97933.91;;;4.62;65.13
64679;BME280;51094;53.864;27.676;2023-10-08T03:08:03;97931.84;;;4.67;65.79
64679;BME280;51094;53.864;27.676;2023-10-08T03:10:40;97941.31;;;4.67;65.04
64679;BME280;51094;53.864;27.676;2023-10-08T03:13:08;97907.94;;;4.53;65.28
64679;BME280;51094;53.864;27.676;2023-10-08T03:15:37;97932.06;;;4.64;64.89
64679;BME280;51094;53.864;27.676;2023-10-08T03:18:07;97892.50;;;4.40;64.41
64679;BME280;51094;53.864;27.676;2023-10-08T03:20:37;97899.72;;;4.48;64.22
64679;BME280;51094;53.864;27.676;2023-10-08T03:23:13;97930.81;;;4.70;64.54
64679;BME280;51094;53.864;27.676;2023-10-08T03:26:02;97920.31;;;4.60;64.73
64679;BME280;51094;53.864;27.676;2023-10-08T03:28:44;97930.16;;;4.79;64.77
64679;BME280;51094;53.864;27.676;2023-10-08T03:31:11;97914.03;;;4.64;64.85
64679;BME280;51094;53.864;27.676;2023-10-08T03:33:46;97921.66;;;4.66;65.06
64679;BME280;51094;53.864;27.676;2023-10-08T03:36:18;97925.47;;;4.60;65.24
64679;BME280;51094;53.864;27.676;2023-10-08T03:38:48;97921.03;;;4.62;65.26
64679;BME280;51094;53.864;27.676;2023-10-08T03:41:25;97913.00;;;4.54;64.71
64679;BME280;51094;53.864;27.676;2023-10-08T03:43:56;97931.53;;;4.59;64.93
64679;BME280;51094;53.864;27.676;2023-10-08T03:46:33;97928.44;;;4.54;65.51
64679;BME280;51094;53.864;27.676;2023-10-08T03:49:08;97891.69;;;4.27;65.54
64679;BME280;51094;53.864;27.676;2023-10-08T03:51:48;97938.22;;;4.49;65.38
64679;BME280;51094;53.864;27.676;2023-10-08T03:54:19;97882.22;;;4.15;65.65
64679;BME280;51094;53.864;27.676;2023-10-08T03:56:47;97929.66;;;4.36;65.95
64679;BME280;51094;53.864;27.676;2023-10-08T03:59:15;97900.97;;;4.29;65.83
64679;BME280;51094;53.864;27.676;2023-10-08T04:01:55;97930.69;;;4.46;65.89
64679;BME280;51094;53.864;27.676;2023-10-08T04:04:25;97887.97;;;4.18;65.81
64679;BME280;51094;53.864;27.676;2023-10-08T04:07:12;97929.66;;;4.36;65.46
64679;BME280;51094;53.864;27.676;2023-10-08T04:09:51;97904.84;;;4.10;65.65
64679;BME280;51094;53.864;27.676;2023-10-08T04:12:37;97902.19;;;4.24;65.87
64679;BME280;51094;53.864;27.676;2023-10-08T04:15:11;97946.34;;;4.43;65.36
64679;BME280;51094;53.864;27.676;2023-10-08T04:17:44;97928.44;;;4.42;65.69
64679;BME280;51094;53.864;27.676;2023-10-08T04:20:12;97938.31;;;4.48;64.95
64679;BME280;51094;53.864;27.676;2023-10-08T04:23:02;97938.81;;;4.40;64.97
64679;BME280;51094;53.864;27.676;2023-10-08T04:25:32;97952.72;;;4.38;65.11
64679;BME280;51094;53.864;27.676;2023-10-08T04:27:59;97943.56;;;4.33;65.51
64679;BME280;51094;53.864;27.676;2023-10-08T04:30:32;97937.50;;;4.22;64.61
64679;BME280;51094;53.864;27.676;2023-10-08T04:33:00;97925.56;;;4.21;64.75
64679;BME280;51094;53.864;27.676;2023-10-08T04:35:34;97959.41;;;4.40;64.46
64679;BME280;51094;53.864;27.676;2023-10-08T04:38:11;97946.47;;;4.29;64.48
64679;BME280;51094;53.864;27.676;2023-10-08T04:40:38;97901.13;;;4.01;64.55
64679;BME280;51094;53.864;27.676;2023-10-08T04:43:15;97975.88;;;4.38;63.61
64679;BME280;51094;53.864;27.676;2023-10-08T04:45:49;97954.69;;;4.21;64.22
64679;BME280;51094;53.864;27.676;2023-10-08T04:48:17;97911.91;;;3.93;63.26
64679;BME280;51094;53.864;27.676;2023-10-08T04:50:48;97978.06;;;4.31;63.48
64679;BME280;51094;53.864;27.676;2023-10-08T04:53:30;97975.06;;;4.37;63.49
64679;BME280;51094;53.864;27.676;2023-10-08T04:56:05;97967.88;;;4.42;63.13
64679;BME280;51094;53.864;27.676;2023-10-08T04:58:34;97963.34;;;4.33;63.04
64679;BME280;51094;53.864;27.676;2023-10-08T05:01:04;97984.75;;;4.46;62.89
64679;BME280;51094;53.864;27.676;2023-10-08T05:03:55;97980.22;;;4.50;62.82
64679;BME280;51094;53.864;27.676;2023-10-08T05:06:27;97974.84;;;4.40;63.19
64679;BME280;51094;53.864;27.676;2023-10-08T05:11:59;97860.88;;;3.75;62.75
64679;BME280;51094;53.864;27.676;2023-10-08T05:14:42;97990.44;;;4.51;62.42
64679;BME280;51094;53.864;27.676;2023-10-08T05:17:22;97973.00;;;4.29;62.66
64679;BME280;51094;53.864;27.676;2023-10-08T05:19:52;97980.66;;;4.56;63.00
64679;BME280;51094;53.864;27.676;2023-10-08T05:22:24;97935.63;;;4.24;62.08
64679;BME280;51094;53.864;27.676;2023-10-08T05:24:56;97999.59;;;4.55;62.51
64679;BME280;51094;53.864;27.676;2023-10-08T05:27:53;97959.50;;;4.39;62.66
64679;BME280;51094;53.864;27.676;2023-10-08T05:30:21;98004.34;;;4.74;62.26
64679;BME280;51094;53.864;27.676;2023-10-08T05:33:05;97987.38;;;4.72;62.01
64679;BME280;51094;53.864;27.676;2023-10-08T05:35:35;97952.94;;;4.22;61.70
64679;BME280;51094;53.864;27.676;2023-10-08T05:38:23;97929.91;;;4.33;61.71
64679;BME280;51094;53.864;27.676;2023-10-08T05:41:04;97862.75;;;3.85;62.33
64679;BME280;51094;53.864;27.676;2023-10-08T05:43:38;97967.97;;;4.53;62.03
64679;BME280;51094;53.864;27.676;2023-10-08T05:48:53;98025.78;;;4.87;61.98
64679;BME280;51094;53.864;27.676;2023-10-08T05:51:34;97995.38;;;4.80;61.90
64679;BME280;51094;53.864;27.676;2023-10-08T05:54:22;98037.94;;;4.73;62.12
64679;BME280;51094;53.864;27.676;2023-10-08T05:57:07;98002.59;;;4.87;62.13
64679;BME280;51094;53.864;27.676;2023-10-08T05:59:45;97978.09;;;4.69;61.73
64679;BME280;51094;53.864;27.676;2023-10-08T06:05:07;97987.97;;;4.88;61.74
64679;BME280;51094;53.864;27.676;2023-10-08T06:07:43;97997.75;;;5.08;61.76
64679;BME280;51094;53.864;27.676;2023-10-08T06:10:21;97994.44;;;5.19;60.86
64679;BME280;51094;53.864;27.676;2023-10-08T06:15:43;98001.00;;;5.35;60.58
64679;BME280;51094;53.864;27.676;2023-10-08T06:18:16;98005.75;;;5.29;60.62
64679;BME280;51094;53.864;27.676;2023-10-08T06:20:46;97993.16;;;5.37;60.67
64679;BME280;51094;53.864;27.676;2023-10-08T06:23:14;98004.38;;;5.36;60.17
64679;BME280;51094;53.864;27.676;2023-10-08T06:25:52;97916.56;;;4.90;60.09
64679;BME280;51094;53.864;27.676;2023-10-08T06:28:26;97992.41;;;5.48;59.38
64679;BME280;51094;53.864;27.676;2023-10-08T06:30:54;98009.75;;;5.69;58.67
64679;BME280;51094;53.864;27.676;2023-10-08T06:33:24;98012.66;;;5.65;58.70
64679;BME280;51094;53.864;27.676;2023-10-08T06:35:57;97992.41;;;5.72;58.53
64679;BME280;51094;53.864;27.676;2023-10-08T06:38:33;98001.88;;;5.84;58.54
64679;BME280;51094;53.864;27.676;2023-10-08T06:41:01;98010.88;;;5.78;57.45
64679;BME280;51094;53.864;27.676;2023-10-08T06:44:01;98009.31;;;5.76;57.79
64679;BME280;51094;53.864;27.676;2023-10-08T06:46:41;98009.94;;;5.79;57.91
64679;BME280;51094;53.864;27.676;2023-10-08T06:49:09;98002.91;;;5.94;57.54
64679;BME280;51094;53.864;27.676;2023-10-08T06:51:41;98014.31;;;6.03;57.87
64679;BME280;51094;53.864;27.676;2023-10-08T06:54:10;97955.91;;;5.65;56.67
64679;BME280;51094;53.864;27.676;2023-10-08T06:56:41;98001.38;;;5.91;56.55
64679;BME280;51094;53.864;27.676;2023-10-08T06:59:14;98012.19;;;5.96;56.11
64679;BME280;51094;53.864;27.676;2023-10-08T07:01:41;98032.16;;;6.06;56.08
64679;BME280;51094;53.864;27.676;2023-10-08T07:04:13;98000.25;;;6.07;55.52
64679;BME280;51094;53.864;27.676;2023-10-08T07:06:42;98019.28;;;6.17;55.16
64679;BME280;51094;53.864;27.676;2023-10-08T07:09:10;98038.28;;;6.16;54.61
64679;BME280;51094;53.864;27.676;2023-10-08T07:11:57;98000.94;;;5.97;55.08
64679;BME280;51094;53.864;27.676;2023-10-08T07:14:26;98011.75;;;6.03;55.61
64679;BME280;51094;53.864;27.676;2023-10-08T07:16:55;98033.91;;;6.29;54.07
64679;BME280;51094;53.864;27.676;2023-10-08T07:19:30;98039.50;;;6.47;54.89
64679;BME280;51094;53.864;27.676;2023-10-08T07:22:00;98018.72;;;6.48;54.38
64679;BME280;51094;53.864;27.676;2023-10-08T07:24:34;98056.19;;;6.30;53.80
64679;BME280;51094;53.864;27.676;2023-10-08T07:27:05;98029.28;;;6.21;53.88
64679;BME280;51094;53.864;27.676;2023-10-08T07:29:35;98058.13;;;6.39;54.03
64679;BME280;51094;53.864;27.676;2023-10-08T07:32:02;98053.56;;;6.43;53.73
64679;BME280;51094;53.864;27.676;2023-10-08T07:34:37;98057.91;;;6.42;52.98
64679;BME280;51094;53.864;27.676;2023-10-08T07:37:04;97969.16;;;5.84;53.75
64679;BME280;51094;53.864;27.676;2023-10-08T07:39:32;98038.06;;;6.43;53.73
64679;BME280;51094;53.864;27.676;2023-10-08T07:42:01;98052.59;;;6.79;52.33
64679;BME280;51094;53.864;27.676;2023-10-08T07:44:28;97996.75;;;6.54;52.01
64679;BME280;51094;53.864;27.676;2023-10-08T07:46:56;98044.16;;;6.77;52.41
64679;BME280;51094;53.864;27.676;2023-10-08T07:49:24;98056.28;;;6.98;52.23
64679;BME280;51094;53.864;27.676;2023-10-08T07:51:57;97954.50;;;6.55;52.17
64679;BME280;51094;53.864;27.676;2023-10-08T07:54:26;98033.13;;;7.42;50.73
64679;BME280;51094;53.864;27.676;2023-10-08T07:56:58;97982.63;;;7.15;50.32
64679;BME280;51094;53.864;27.676;2023-10-08T07:59:41;98026.09;;;7.55;49.96
64679;BME280;51094;53.864;27.676;2023-10-08T08:02:09;98041.31;;;7.80;49.80
64679;BME280;51094;53.864;27.676;2023-10-08T08:04:43;98003.16;;;7.50;49.08
64679;BME280;51094;53.864;27.676;2023-10-08T08:07:12;98038.28;;;7.75;48.12
64679;BME280;51094;53.864;27.676;2023-10-08T08:09:49;98061.78;;;7.83;47.44
64679;BME280;51094;53.864;27.676;2023-10-08T08:12:26;97957.22;;;7.31;48.61
64679;BME280;51094;53.864;27.676;2023-10-08T08:14:55;98058.56;;;8.02;48.04
64679;BME280;51094;53.864;27.676;2023-10-08T08:17:22;98069.66;;;7.82;47.57
64679;BME280;51094;53.864;27.676;2023-10-08T08:19:51;98036.91;;;7.49;48.08
64679;BME280;51094;53.864;27.676;2023-10-08T08:22:20;98009.97;;;7.40;47.53
64679;BME280;51094;53.864;27.676;2023-10-08T08:24:51;98069.31;;;7.86;46.19
64679;BME280;51094;53.864;27.676;2023-10-08T08:27:47;98026.63;;;7.81;46.54
64679;BME280;51094;53.864;27.676;2023-10-08T08:30:16;98045.88;;;7.99;46.68
64679;BME280;51094;53.864;27.676;2023-10-08T08:32:44;98075.81;;;8.24;45.19
64679;BME280;51094;53.864;27.676;2023-10-08T08:35:19;98053.03;;;8.07;45.77
64679;BME280;51094;53.864;27.676;2023-10-08T08:37:47;98069.94;;;8.33;45.44
64679;BME280;51094;53.864;27.676;2023-10-08T08:40:18;98054.81;;;8.70;45.59
64679;BME280;51094;53.864;27.676;2023-10-08T08:42:48;98060.94;;;8.48;44.87
64679;BME280;51094;53.864;27.676;2023-10-08T08:45:24;98066.81;;;8.50;45.54
64679;BME280;51094;53.864;27.676;2023-10-08T08:47:51;98042.28;;;8.54;43.98
64679;BME280;51094;53.864;27.676;2023-10-08T08:50:19;98063.81;;;8.66;43.53
64679;BME280;51094;53.864;27.676;2023-10-08T08:52:48;97999.69;;;8.15;44.19
64679;BME280;51094;53.864;27.676;2023-10-08T08:55:15;98005.47;;;8.19;43.87
64679;BME280;51094;53.864;27.676;2023-10-08T08:57:47;98038.19;;;8.20;44.16
64679;BME280;51094;53.864;27.676;2023-10-08T09:00:15;98045.31;;;8.39;44.61
64679;BME280;51094;53.864;27.676;2023-10-08T09:02:44;98063.59;;;8.58;43.96
64679;BME280;51094;53.864;27.676;2023-10-08T09:05:11;98073.06;;;8.68;44.16
64679;BME280;51094;53.864;27.676;2023-10-08T09:10:26;98084.22;;;8.80;43.08
64679;BME280;51094;53.864;27.676;2023-10-08T09:12:57;98077.66;;;8.97;42.48
64679;BME280;51094;53.864;27.676;2023-10-08T09:15:28;98074.81;;;9.30;42.16
64679;BME280;51094;53.864;27.676;2023-10-08T09:17:56;98049.06;;;9.39;41.29
64679;BME280;51094;53.864;27.676;2023-10-08T09:20:23;98042.34;;;9.76;41.16
64679;BME280;51094;53.864;27.676;2023-10-08T09:23:09;98061.13;;;10.09;39.37
64679;BME280;51094;53.864;27.676;2023-10-08T09:25:41;98045.19;;;10.23;39.04
64679;BME280;51094;53.864;27.676;2023-10-08T09:28:09;98064.06;;;10.44;38.50
64679;BME280;51094;53.864;27.676;2023-10-08T09:30:40;98019.69;;;9.97;38.76
64679;BME280;51094;53.864;27.676;2023-10-08T09:33:10;98060.25;;;10.29;38.38
64679;BME280;51094;53.864;27.676;2023-10-08T09:35:39;98075.19;;;9.96;39.38
64679;BME280;51094;53.864;27.676;2023-10-08T09:38:07;98042.72;;;9.62;38.54
64679;BME280;51094;53.864;27.676;2023-10-08T09:40:40;98080.56;;;9.64;38.24
64679;BME280;51094;53.864;27.676;2023-10-08T09:43:15;98082.72;;;9.50;39.59
64679;BME280;51094;53.864;27.676;2023-10-08T09:45:47;98107.41;;;9.23;40.06
64679;BME280;51094;53.864;27.676;2023-10-08T09:48:16;98100.81;;;9.19;38.54
64679;BME280;51094;53.864;27.676;2023-10-08T09:50:47;98089.97;;;8.84;38.59
64679;BME280;51094;53.864;27.676;2023-10-08T09:53:14;98087.88;;;8.57;39.11
64679;BME280;51094;53.864;27.676;2023-10-08T09:55:56;98089.09;;;8.94;39.12
64679;BME280;51094;53.864;27.676;2023-10-08T09:58:25;98079.59;;;9.05;38.36
64679;BME280;51094;53.864;27.676;2023-10-08T10:00:55;98078.22;;;9.52;37.27
64679;BME280;51094;53.864;27.676;2023-10-08T10:03:25;98090.06;;;10.25;37.34
64679;BME280;51094;53.864;27.676;2023-10-08T10:05:54;98058.28;;;10.89;36.08
64679;BME280;51094;53.864;27.676;2023-10-08T10:08:26;98042.31;;;10.45;33.89
64679;BME280;51094;53.864;27.676;2023-10-08T10:10:59;98115.44;;;11.27;33.82
64679;BME280;51094;53.864;27.676;2023-10-08T10:13:34;98132.78;;;10.80;33.36
64679;BME280;51094;53.864;27.676;2023-10-08T10:16:10;98075.00;;;10.28;34.80
64679;BME280;51094;53.864;27.676;2023-10-08T10:18:37;98024.81;;;9.59;35.44
64679;BME280;51094;53.864;27.676;2023-10-08T10:23:40;98065.25;;;9.61;37.49
64679;BME280;51094;53.864;27.676;2023-10-08T10:31:50;98073.28;;;9.49;37.64
64679;BME280;51094;53.864;27.676;2023-10-08T10:34:25;98067.16;;;9.29;37.54
64679;BME280;51094;53.864;27.676;2023-10-08T10:36:57;98059.09;;;9.62;38.21
64679;BME280;51094;53.864;27.676;2023-10-08T10:39:53;98053.34;;;10.18;37.15
64679;BME280;51094;53.864;27.676;2023-10-08T10:42:22;98029.56;;;10.13;36.21
64679;BME280;51094;53.864;27.676;2023-10-08T10:44:49;98042.66;;;9.83;36.83
64679;BME280;51094;53.864;27.676;2023-10-08T10:47:19;98069.25;;;9.75;36.94
64679;BME280;51094;53.864;27.676;2023-10-08T10:49:50;98043.53;;;9.62;37.06
64679;BME280;51094;53.864;27.676;2023-10-08T10:55:07;98037.44;;;9.03;38.55
64679;BME280;51094;53.864;27.676;2023-10-08T10:57:46;98029.59;;;8.93;38.11
64679;BME280;51094;53.864;27.676;2023-10-08T11:00:23;98026.69;;;8.86;38.68
64679;BME280;51094;53.864;27.676;2023-10-08T11:03:01;97993.50;;;8.59;39.01
64679;BME280;51094;53.864;27.676;2023-10-08T11:05:31;97990.44;;;8.96;38.08
64679;BME280;51094;53.864;27.676;2023-10-08T11:07:59;98037.28;;;10.34;37.27
64679;BME280;51094;53.864;27.676;2023-10-08T11:10:36;97986.25;;;10.43;36.91
64679;BME280;51094;53.864;27.676;2023-10-08T11:13:13;97957.53;;;11.55;34.86
64679;BME280;51094;53.864;27.676;2023-10-08T11:15:45;97969.53;;;11.66;33.73
64679;BME280;51094;53.864;27.676;2023-10-08T11:18:22;97990.03;;;11.24;33.91
64679;BME280;51094;53.864;27.676;2023-10-08T11:20:51;97889.03;;;10.16;34.86
64679;BME280;51094;53.864;27.676;2023-10-08T11:23:37;97986.47;;;10.01;36.15
64679;BME280;51094;53.864;27.676;2023-10-08T11:26:08;97938.38;;;9.18;37.92
64679;BME280;51094;53.864;27.676;2023-10-08T11:28:39;97967.53;;;9.01;37.56
64679;BME280;51094;53.864;27.676;2023-10-08T11:31:11;98137.09;;;9.10;40.10
64679;BME280;51094;53.864;27.676;2023-10-08T11:33:42;98150.03;;;7.58;57.13
64679;BME280;51094;53.864;27.676;2023-10-08T11:36:10;98167.63;;;6.24;62.30
64679;BME280;51094;53.864;27.676;2023-10-08T11:38:46;98084.38;;;4.84;67.18
64679;BME280;51094;53.864;27.676;2023-10-08T11:41:20;98157.41;;;4.70;70.53
64679;BME280;51094;53.864;27.676;2023-10-08T11:43:51;98176.28;;;4.83;72.53
64679;BME280;51094;53.864;27.676;2023-10-08T11:46:27;98180.13;;;4.90;73.79
64679;BME280;51094;53.864;27.676;2023-10-08T11:48:59;98141.53;;;4.63;73.00
64679;BME280;51094;53.864;27.676;2023-10-08T11:51:32;98184.31;;;4.52;72.55
64679;BME280;51094;53.864;27.676;2023-10-08T11:54:03;98179.81;;;4.14;73.33
64679;BME280;51094;53.864;27.676;2023-10-08T11:56:33;98085.97;;;3.38;74.06
64679;BME280;51094;53.864;27.676;2023-10-08T11:59:05;98119.00;;;3.44;76.21
64679;BME280;51094;53.864;27.676;2023-10-08T12:01:36;98135.78;;;3.78;76.30
64679;BME280;51094;53.864;27.676;2023-10-08T12:04:04;98127.75;;;3.96;76.90
64679;BME280;51094;53.864;27.676;2023-10-08T12:06:32;98132.16;;;4.62;75.99
64679;BME280;51094;53.864;27.676;2023-10-08T12:09:00;98124.47;;;4.75;73.68
64679;BME280;51094;53.864;27.676;2023-10-08T12:11:27;98137.88;;;4.93;74.15
64679;BME280;51094;53.864;27.676;2023-10-08T12:13:58;98119.13;;;4.91;71.90
64679;BME280;51094;53.864;27.676;2023-10-08T12:16:27;98146.50;;;4.79;71.49
64679;BME280;51094;53.864;27.676;2023-10-08T12:18:56;98119.38;;;4.34;72.37
64679;BME280;51094;53.864;27.676;2023-10-08T12:21:27;98142.34;;;4.37;72.98
64679;BME280;51094;53.864;27.676;2023-10-08T12:24:00;98143.03;;;4.26;73.27
64679;BME280;51094;53.864;27.676;2023-10-08T12:26:31;98133.78;;;4.24;72.57
64679;BME280;51094;53.864;27.676;2023-10-08T12:28:59;98129.63;;;4.75;70.55
64679;BME280;51094;53.864;27.676;2023-10-08T12:31:27;98133.59;;;5.31;69.30
64679;BME280;51094;53.864;27.676;2023-10-08T12:33:55;98129.97;;;5.21;67.66
64679;BME280;51094;53.864;27.676;2023-10-08T12:36:27;98025.50;;;4.00;68.76
64679;BME280;51094;53.864;27.676;2023-10-08T12:38:59;98136.25;;;4.52;68.71
64679;BME280;51094;53.864;27.676;2023-10-08T12:41:34;98149.03;;;4.27;69.22
64679;BME280;51094;53.864;27.676;2023-10-08T12:44:05;98179.31;;;4.36;70.40
64679;BME280;51094;53.864;27.676;2023-10-08T12:46:34;98178.44;;;4.50;70.13
64679;BME280;51094;53.864;27.676;2023-10-08T12:49:03;98178.75;;;4.85;69.15
64679;BME280;51094;53.864;27.676;2023-10-08T12:51:31;98167.56;;;4.59;68.28
64679;BME280;51094;53.864;27.676;2023-10-08T12:54:02;98156.94;;;4.51;68.53
64679;BME280;51094;53.864;27.676;2023-10-08T12:56:34;98161.00;;;4.41;68.02
64679;BME280;51094;53.864;27.676;2023-10-08T12:59:11;98164.13;;;4.46;69.12
64679;BME280;51094;53.864;27.676;2023-10-08T13:01:48;98136.91;;;4.42;68.81
64679;BME280;51094;53.864;27.676;2023-10-08T13:04:18;98140.84;;;4.20;69.35
64679;BME280;51094;53.864;27.676;2023-10-08T13:06:55;98137.13;;;3.97;71.11
64679;BME280;51094;53.864;27.676;2023-10-08T13:09:24;98172.19;;;4.13;72.50
64679;BME280;51094;53.864;27.676;2023-10-08T13:11:52;98173.88;;;3.99;72.39
64679;BME280;51094;53.864;27.676;2023-10-08T13:14:19;98117.97;;;3.60;73.51
64679;BME280;51094;53.864;27.676;2023-10-08T13:16:49;98123.94;;;3.75;73.86
64679;BME280;51094;53.864;27.676;2023-10-08T13:19:22;98096.13;;;3.67;73.98
64679;BME280;51094;53.864;27.676;2023-10-08T13:21:53;98105.03;;;3.76;74.17
64679;BME280;51094;53.864;27.676;2023-10-08T13:24:20;98147.75;;;4.20;73.92
64679;BME280;51094;53.864;27.676;2023-10-08T13:26:51;98150.13;;;4.50;74.31
64679;BME280;51094;53.864;27.676;2023-10-08T13:29:18;98138.47;;;4.71;72.89
64679;BME280;51094;53.864;27.676;2023-10-08T13:31:45;98082.59;;;4.59;72.64
64679;BME280;51094;53.864;27.676;2023-10-08T13:34:14;98151.09;;;5.01;71.37
64679;BME280;51094;53.864;27.676;2023-10-08T13:36:43;98120.16;;;5.01;71.88
64679;BME280;51094;53.864;27.676;2023-10-08T13:39:14;98151.13;;;5.14;71.06
64679;BME280;51094;53.864;27.676;2023-10-08T13:41:46;98107.38;;;4.87;70.90
64679;BME280;51094;53.864;27.676;2023-10-08T13:44:16;98135.22;;;5.07;70.41
64679;BME280;51094;53.864;27.676;2023-10-08T13:46:45;98094.09;;;5.06;70.12
64679;BME280;51094;53.864;27.676;2023-10-08T13:49:17;98139.13;;;5.63;68.88
64679;BME280;51094;53.864;27.676;2023-10-08T13:51:46;98130.97;;;5.69;69.00